Rathdrum, Idaho
Current Conditions -  °F | °C
As of 6:15 AM on Monday 20 Oct 2014 (Local Time) from KCOE Reporting Station
Overcast Overcast  
Wind Chill: 39°   Ceiling: 500
Heat Index: 43°   Visibility: 0.5mi
Dew Point: 39°   Wind: 6mph
Humidity: 87%   Direction: 110°ESE
Pressure: 29.77"   Gusts: NA
Location:  47.81°N, 116.9°W
Report Text: KCOE 201315Z AUTO 11005KT 1/2SM VV005 06/04 A2977 RMK AO1
Loading
Personal Weather Stations






























Interactive Weather Map
Tropical Storm Tracking
New forecast layout! Learn more

10-Day Weather Forecast

Advertisements
Track Severe Weather on mobile